sensor_id;sensor_type;location;lat;lon;timestamp;pressure;altitude;pressure_sealevel;temperature;humidity
24746;BME280;12845;52.042;6.838;2023-04-16T00:02:21;-18240.75;;;7.90;100.00
24746;BME280;12845;52.042;6.838;2023-04-16T00:04:46;-18239.22;;;7.84;100.00
24746;BME280;12845;52.042;6.838;2023-04-16T00:07:11;-18239.50;;;7.85;100.00
24746;BME280;12845;52.042;6.838;2023-04-16T00:09:37;-18240.59;;;7.89;100.00
24746;BME280;12845;52.042;6.838;2023-04-16T00:12:03;-18241.16;;;7.91;100.00
24746;BME280;12845;52.042;6.838;2023-04-16T00:14:29;-18240.06;;;7.87;100.00
24746;BME280;12845;52.042;6.838;2023-04-16T00:16:54;-18240.06;;;7.87;100.00
24746;BME280;12845;52.042;6.838;2023-04-16T00:19:20;-18240.47;;;7.89;100.00
24746;BME280;12845;52.042;6.838;2023-04-16T00:21:45;-18240.47;;;7.89;100.00
24746;BME280;12845;52.042;6.838;2023-04-16T00:24:10;-18239.22;;;7.84;100.00
24746;BME280;12845;52.042;6.838;2023-04-16T00:26:38;-18240.19;;;7.88;100.00
24746;BME280;12845;52.042;6.838;2023-04-16T00:29:05;-18240.06;;;7.87;100.00
24746;BME280;12845;52.042;6.838;2023-04-16T00:31:31;-18241.16;;;7.91;100.00
24746;BME280;12845;52.042;6.838;2023-04-16T00:33:57;-18243.09;;;7.99;100.00
24746;BME280;12845;52.042;6.838;2023-04-16T00:36:24;-18242.13;;;7.95;100.00
24746;BME280;12845;52.042;6.838;2023-04-16T00:38:51;-18241.72;;;7.94;100.00
24746;BME280;12845;52.042;6.838;2023-04-16T00:41:16;-18241.16;;;7.91;100.00
24746;BME280;12845;52.042;6.838;2023-04-16T00:43:42;-18241.44;;;7.93;100.00
24746;BME280;12845;52.042;6.838;2023-04-16T00:46:08;-18240.88;;;7.90;100.00
24746;BME280;12845;52.042;6.838;2023-04-16T00:48:35;-18241.31;;;7.92;100.00
24746;BME280;12845;52.042;6.838;2023-04-16T00:51:04;-18241.31;;;7.92;100.00
24746;BME280;12845;52.042;6.838;2023-04-16T00:53:30;-18241.72;;;7.94;100.00
24746;BME280;12845;52.042;6.838;2023-04-16T00:55:56;-18241.03;;;7.91;100.00
24746;BME280;12845;52.042;6.838;2023-04-16T00:58:22;-18240.59;;;7.89;100.00
24746;BME280;12845;52.042;6.838;2023-04-16T01:00:48;-18241.16;;;7.91;100.00
24746;BME280;12845;52.042;6.838;2023-04-16T01:03:13;-18242.81;;;7.98;100.00
24746;BME280;12845;52.042;6.838;2023-04-16T01:05:39;-18241.44;;;7.93;100.00
24746;BME280;12845;52.042;6.838;2023-04-16T01:08:05;-18241.72;;;7.94;100.00
24746;BME280;12845;52.042;6.838;2023-04-16T01:10:30;-18241.84;;;7.94;100.00
24746;BME280;12845;52.042;6.838;2023-04-16T01:12:55;-18242.53;;;7.97;100.00
24746;BME280;12845;52.042;6.838;2023-04-16T01:15:21;-18241.72;;;7.94;100.00
24746;BME280;12845;52.042;6.838;2023-04-16T01:17:46;-18242.00;;;7.95;100.00
24746;BME280;12845;52.042;6.838;2023-04-16T01:20:11;-18241.72;;;7.94;100.00
24746;BME280;12845;52.042;6.838;2023-04-16T01:22:37;-18241.16;;;7.91;100.00
24746;BME280;12845;52.042;6.838;2023-04-16T01:25:02;-18241.16;;;7.91;100.00
24746;BME280;12845;52.042;6.838;2023-04-16T01:27:28;-18240.88;;;7.90;100.00
24746;BME280;12845;52.042;6.838;2023-04-16T01:29:53;-18241.44;;;7.93;100.00
24746;BME280;12845;52.042;6.838;2023-04-16T01:32:20;-18241.72;;;7.94;100.00
24746;BME280;12845;52.042;6.838;2023-04-16T01:34:45;-18241.72;;;7.94;100.00
24746;BME280;12845;52.042;6.838;2023-04-16T01:37:11;-18243.22;;;7.99;100.00
24746;BME280;12845;52.042;6.838;2023-04-16T01:39:36;-18242.81;;;7.98;100.00
24746;BME280;12845;52.042;6.838;2023-04-16T01:42:02;-18243.22;;;7.99;100.00
24746;BME280;12845;52.042;6.838;2023-04-16T01:44:27;-18242.81;;;7.98;100.00
24746;BME280;12845;52.042;6.838;2023-04-16T01:46:52;-18242.94;;;7.98;100.00
24746;BME280;12845;52.042;6.838;2023-04-16T01:49:18;-18242.81;;;7.98;100.00
24746;BME280;12845;52.042;6.838;2023-04-16T01:51:44;-18243.63;;;8.01;100.00
24746;BME280;12845;52.042;6.838;2023-04-16T01:54:09;-18244.75;;;8.05;100.00
24746;BME280;12845;52.042;6.838;2023-04-16T01:56:34;-18243.91;;;8.02;100.00
24746;BME280;12845;52.042;6.838;2023-04-16T01:59:00;-18245.03;;;8.06;100.00
24746;BME280;12845;52.042;6.838;2023-04-16T02:01:25;-18245.56;;;8.08;100.00
24746;BME280;12845;52.042;6.838;2023-04-16T02:03:51;-18246.13;;;8.10;100.00
24746;BME280;12845;52.042;6.838;2023-04-16T02:06:17;-18246.66;;;8.12;100.00
24746;BME280;12845;52.042;6.838;2023-04-16T02:08:42;-18248.31;;;8.18;100.00
24746;BME280;12845;52.042;6.838;2023-04-16T02:11:08;-18249.28;;;8.22;100.00
24746;BME280;12845;52.042;6.838;2023-04-16T02:13:33;-18247.09;;;8.13;100.00
24746;BME280;12845;52.042;6.838;2023-04-16T02:15:59;-18246.38;;;8.11;100.00
24746;BME280;12845;52.042;6.838;2023-04-16T02:18:24;-18247.09;;;8.13;100.00
24746;BME280;12845;52.042;6.838;2023-04-16T02:20:49;-18247.22;;;8.14;100.00
24746;BME280;12845;52.042;6.838;2023-04-16T02:23:16;-18247.22;;;8.14;100.00
24746;BME280;12845;52.042;6.838;2023-04-16T02:25:43;-18246.38;;;8.11;100.00
24746;BME280;12845;52.042;6.838;2023-04-16T02:28:10;-18246.38;;;8.11;100.00
24746;BME280;12845;52.042;6.838;2023-04-16T02:30:36;-18247.91;;;8.17;100.00
24746;BME280;12845;52.042;6.838;2023-04-16T02:33:06;-18247.50;;;8.15;100.00
24746;BME280;12845;52.042;6.838;2023-04-16T02:35:32;-18248.31;;;8.18;100.00
24746;BME280;12845;52.042;6.838;2023-04-16T02:37:58;-18248.88;;;8.20;100.00
24746;BME280;12845;52.042;6.838;2023-04-16T02:40:24;-18249.41;;;8.22;100.00
24746;BME280;12845;52.042;6.838;2023-04-16T02:42:49;-18249.56;;;8.23;100.00
24746;BME280;12845;52.042;6.838;2023-04-16T02:45:14;-18250.38;;;8.26;100.00
24746;BME280;12845;52.042;6.838;2023-04-16T02:47:40;-18250.25;;;8.25;100.00
24746;BME280;12845;52.042;6.838;2023-04-16T02:50:06;-18249.56;;;8.23;100.00
24746;BME280;12845;52.042;6.838;2023-04-16T02:52:31;-18249.69;;;8.23;100.00
24746;BME280;12845;52.042;6.838;2023-04-16T02:54:57;-18249.41;;;8.22;100.00
24746;BME280;12845;52.042;6.838;2023-04-16T02:57:23;-18250.09;;;8.25;100.00
24746;BME280;12845;52.042;6.838;2023-04-16T02:59:48;-18248.72;;;8.20;100.00
24746;BME280;12845;52.042;6.838;2023-04-16T03:02:13;-18249.00;;;8.21;100.00
24746;BME280;12845;52.042;6.838;2023-04-16T03:04:40;-18248.88;;;8.20;100.00
24746;BME280;12845;52.042;6.838;2023-04-16T03:07:05;-18248.31;;;8.18;100.00
24746;BME280;12845;52.042;6.838;2023-04-16T03:09:30;-18248.88;;;8.20;100.00
24746;BME280;12845;52.042;6.838;2023-04-16T03:11:56;-18249.69;;;8.23;100.00
24746;BME280;12845;52.042;6.838;2023-04-16T03:14:21;-18248.88;;;8.20;100.00
24746;BME280;12845;52.042;6.838;2023-04-16T03:16:46;-18249.56;;;8.23;100.00
24746;BME280;12845;52.042;6.838;2023-04-16T03:19:12;-18250.09;;;8.25;100.00
24746;BME280;12845;52.042;6.838;2023-04-16T03:21:37;-18250.25;;;8.25;100.00
24746;BME280;12845;52.042;6.838;2023-04-16T03:24:02;-18249.69;;;8.23;100.00
24746;BME280;12845;52.042;6.838;2023-04-16T03:26:28;-18250.09;;;8.25;100.00
24746;BME280;12845;52.042;6.838;2023-04-16T03:28:53;-18249.69;;;8.23;100.00
24746;BME280;12845;52.042;6.838;2023-04-16T03:31:18;-18250.25;;;8.25;100.00
24746;BME280;12845;52.042;6.838;2023-04-16T03:33:44;-18249.28;;;8.22;100.00
24746;BME280;12845;52.042;6.838;2023-04-16T03:36:09;-18249.69;;;8.23;100.00
24746;BME280;12845;52.042;6.838;2023-04-16T03:38:35;-18248.88;;;8.20;100.00
24746;BME280;12845;52.042;6.838;2023-04-16T03:41:00;-18248.88;;;8.20;100.00
24746;BME280;12845;52.042;6.838;2023-04-16T03:43:25;-18248.88;;;8.20;100.00
24746;BME280;12845;52.042;6.838;2023-04-16T03:45:51;-18249.41;;;8.22;100.00
24746;BME280;12845;52.042;6.838;2023-04-16T03:48:16;-18249.16;;;8.21;100.00
24746;BME280;12845;52.042;6.838;2023-04-16T03:50:45;-18248.88;;;8.20;100.00
24746;BME280;12845;52.042;6.838;2023-04-16T03:53:12;-18249.69;;;8.23;100.00
24746;BME280;12845;52.042;6.838;2023-04-16T03:55:37;-18249.97;;;8.24;100.00
24746;BME280;12845;52.042;6.838;2023-04-16T03:58:02;-18249.84;;;8.24;100.00
24746;BME280;12845;52.042;6.838;2023-04-16T04:00:29;-18249.41;;;8.22;100.00
24746;BME280;12845;52.042;6.838;2023-04-16T04:02:55;-18249.69;;;8.23;100.00
24746;BME280;12845;52.042;6.838;2023-04-16T04:05:20;-18249.00;;;8.21;100.00
24746;BME280;12845;52.042;6.838;2023-04-16T04:07:45;-18248.88;;;8.20;100.00
24746;BME280;12845;52.042;6.838;2023-04-16T04:10:11;-18248.88;;;8.20;100.00
24746;BME280;12845;52.042;6.838;2023-04-16T04:12:36;-18248.59;;;8.19;100.00
24746;BME280;12845;52.042;6.838;2023-04-16T04:15:01;-18248.88;;;8.20;100.00
24746;BME280;12845;52.042;6.838;2023-04-16T04:17:27;-18247.91;;;8.17;100.00
24746;BME280;12845;52.042;6.838;2023-04-16T04:19:52;-18247.78;;;8.16;100.00
24746;BME280;12845;52.042;6.838;2023-04-16T04:22:18;-18248.59;;;8.19;100.00
24746;BME280;12845;52.042;6.838;2023-04-16T04:24:43;-18247.91;;;8.17;100.00
24746;BME280;12845;52.042;6.838;2023-04-16T04:27:09;-18248.03;;;8.17;100.00
24746;BME280;12845;52.042;6.838;2023-04-16T04:29:34;-18247.78;;;8.16;100.00
24746;BME280;12845;52.042;6.838;2023-04-16T04:31:59;-18247.91;;;8.17;100.00
24746;BME280;12845;52.042;6.838;2023-04-16T04:34:25;-18248.03;;;8.17;100.00
24746;BME280;12845;52.042;6.838;2023-04-16T04:36:50;-18247.63;;;8.16;100.00
24746;BME280;12845;52.042;6.838;2023-04-16T04:39:16;-18247.22;;;8.14;100.00
24746;BME280;12845;52.042;6.838;2023-04-16T04:41:41;-18247.91;;;8.17;100.00
24746;BME280;12845;52.042;6.838;2023-04-16T04:44:06;-18248.03;;;8.17;100.00
24746;BME280;12845;52.042;6.838;2023-04-16T04:46:32;-18248.59;;;8.19;100.00
24746;BME280;12845;52.042;6.838;2023-04-16T04:48:57;-18248.59;;;8.19;100.00
24746;BME280;12845;52.042;6.838;2023-04-16T04:51:23;-18249.56;;;8.23;100.00
24746;BME280;12845;52.042;6.838;2023-04-16T04:53:48;-18249.97;;;8.24;100.00
24746;BME280;12845;52.042;6.838;2023-04-16T04:56:13;-18251.06;;;8.28;100.00
24746;BME280;12845;52.042;6.838;2023-04-16T04:58:39;-18250.25;;;8.25;100.00
24746;BME280;12845;52.042;6.838;2023-04-16T05:01:05;-18250.53;;;8.26;100.00
24746;BME280;12845;52.042;6.838;2023-04-16T05:03:31;-18250.25;;;8.25;100.00
24746;BME280;12845;52.042;6.838;2023-04-16T05:05:56;-18251.34;;;8.29;100.00
24746;BME280;12845;52.042;6.838;2023-04-16T05:08:21;-18251.34;;;8.29;100.00
24746;BME280;12845;52.042;6.838;2023-04-16T05:10:47;-18251.50;;;8.30;100.00
24746;BME280;12845;52.042;6.838;2023-04-16T05:13:12;-18252.72;;;8.34;100.00
24746;BME280;12845;52.042;6.838;2023-04-16T05:15:37;-18252.44;;;8.33;100.00
24746;BME280;12845;52.042;6.838;2023-04-16T05:18:03;-18252.88;;;8.35;100.00
24746;BME280;12845;52.042;6.838;2023-04-16T05:20:28;-18253.56;;;8.38;100.00
24746;BME280;12845;52.042;6.838;2023-04-16T05:22:53;-18254.53;;;8.41;100.00
24746;BME280;12845;52.042;6.838;2023-04-16T05:25:19;-18253.84;;;8.39;100.00
24746;BME280;12845;52.042;6.838;2023-04-16T05:27:45;-18253.84;;;8.39;100.00
24746;BME280;12845;52.042;6.838;2023-04-16T05:30:10;-18252.44;;;8.33;100.00
24746;BME280;12845;52.042;6.838;2023-04-16T05:32:38;-18252.03;;;8.32;100.00
24746;BME280;12845;52.042;6.838;2023-04-16T05:35:05;-18251.75;;;8.31;100.00
24746;BME280;12845;52.042;6.838;2023-04-16T05:37:30;-18252.19;;;8.32;100.00
24746;BME280;12845;52.042;6.838;2023-04-16T05:39:56;-18251.63;;;8.30;100.00
24746;BME280;12845;52.042;6.838;2023-04-16T05:42:21;-18252.31;;;8.33;100.00
24746;BME280;12845;52.042;6.838;2023-04-16T05:44:46;-18252.59;;;8.34;100.00
24746;BME280;12845;52.042;6.838;2023-04-16T05:47:12;-18252.03;;;8.32;100.00
24746;BME280;12845;52.042;6.838;2023-04-16T05:49:37;-18252.19;;;8.32;100.00
24746;BME280;12845;52.042;6.838;2023-04-16T05:52:03;-18252.44;;;8.33;100.00
24746;BME280;12845;52.042;6.838;2023-04-16T05:54:28;-18252.72;;;8.34;100.00
24746;BME280;12845;52.042;6.838;2023-04-16T05:56:54;-18253.56;;;8.38;100.00
24746;BME280;12845;52.042;6.838;2023-04-16T05:59:19;-18254.66;;;8.42;100.00
24746;BME280;12845;52.042;6.838;2023-04-16T06:01:44;-18254.09;;;8.40;100.00
24746;BME280;12845;52.042;6.838;2023-04-16T06:04:10;-18254.53;;;8.41;100.00
24746;BME280;12845;52.042;6.838;2023-04-16T06:06:36;-18256.16;;;8.47;100.00
24746;BME280;12845;52.042;6.838;2023-04-16T06:09:02;-18256.03;;;8.47;100.00
24746;BME280;12845;52.042;6.838;2023-04-16T06:11:31;-18254.25;;;8.40;100.00
24746;BME280;12845;52.042;6.838;2023-04-16T06:13:56;-18254.66;;;8.42;100.00
24746;BME280;12845;52.042;6.838;2023-04-16T06:16:22;-18254.25;;;8.40;100.00
24746;BME280;12845;52.042;6.838;2023-04-16T06:18:47;-18254.38;;;8.41;100.00
24746;BME280;12845;52.042;6.838;2023-04-16T06:21:12;-18256.16;;;8.47;100.00
24746;BME280;12845;52.042;6.838;2023-04-16T06:23:38;-18257.13;;;8.51;100.00
24746;BME280;12845;52.042;6.838;2023-04-16T06:26:03;-18258.38;;;8.55;100.00
24746;BME280;12845;52.042;6.838;2023-04-16T06:28:29;-18258.25;;;8.55;100.00
24746;BME280;12845;52.042;6.838;2023-04-16T06:30:54;-18260.31;;;8.63;100.00
24746;BME280;12845;52.042;6.838;2023-04-16T06:33:20;-18260.31;;;8.63;100.00
24746;BME280;12845;52.042;6.838;2023-04-16T06:35:45;-18261.81;;;8.68;100.00
24746;BME280;12845;52.042;6.838;2023-04-16T06:38:10;-18261.94;;;8.69;100.00
24746;BME280;12845;52.042;6.838;2023-04-16T06:40:36;-18262.22;;;8.70;100.00
24746;BME280;12845;52.042;6.838;2023-04-16T06:43:01;-18261.81;;;8.68;100.00
24746;BME280;12845;52.042;6.838;2023-04-16T06:45:27;-18261.81;;;8.68;100.00
24746;BME280;12845;52.042;6.838;2023-04-16T06:47:52;-18262.63;;;8.71;100.00
24746;BME280;12845;52.042;6.838;2023-04-16T06:50:18;-18262.50;;;8.71;100.00
24746;BME280;12845;52.042;6.838;2023-04-16T06:52:43;-18262.38;;;8.70;100.00
24746;BME280;12845;52.042;6.838;2023-04-16T06:55:09;-18262.91;;;8.72;100.00
24746;BME280;12845;52.042;6.838;2023-04-16T06:57:35;-18263.59;;;8.75;100.00
24746;BME280;12845;52.042;6.838;2023-04-16T07:00:00;-18263.59;;;8.75;100.00
24746;BME280;12845;52.042;6.838;2023-04-16T07:02:25;-18264.56;;;8.78;100.00
24746;BME280;12845;52.042;6.838;2023-04-16T07:04:51;-18266.34;;;8.85;100.00
24746;BME280;12845;52.042;6.838;2023-04-16T07:07:17;-18265.81;;;8.83;100.00
24746;BME280;12845;52.042;6.838;2023-04-16T07:09:42;-18265.66;;;8.82;100.00
24746;BME280;12845;52.042;6.838;2023-04-16T07:12:07;-18266.78;;;8.87;100.00
24746;BME280;12845;52.042;6.838;2023-04-16T07:14:33;-18267.03;;;8.88;100.00
24746;BME280;12845;52.042;6.838;2023-04-16T07:16:58;-18265.81;;;8.83;100.00
24746;BME280;12845;52.042;6.838;2023-04-16T07:19:24;-18265.81;;;8.83;100.00
24746;BME280;12845;52.042;6.838;2023-04-16T07:21:49;-18265.41;;;8.81;100.00
24746;BME280;12845;52.042;6.838;2023-04-16T07:24:15;-18267.31;;;8.89;100.00
24746;BME280;12845;52.042;6.838;2023-04-16T07:26:44;-18267.31;;;8.89;100.00
24746;BME280;12845;52.042;6.838;2023-04-16T07:29:09;-18267.31;;;8.89;100.00
24746;BME280;12845;52.042;6.838;2023-04-16T07:31:35;-18267.59;;;8.90;100.00
24746;BME280;12845;52.042;6.838;2023-04-16T07:34:00;-18268.41;;;8.93;100.00
24746;BME280;12845;52.042;6.838;2023-04-16T07:36:26;-18268.16;;;8.92;100.00
24746;BME280;12845;52.042;6.838;2023-04-16T07:38:52;-18268.16;;;8.92;100.00
24746;BME280;12845;52.042;6.838;2023-04-16T07:41:22;-18267.31;;;8.89;100.00
24746;BME280;12845;52.042;6.838;2023-04-16T07:43:48;-18267.31;;;8.89;100.00
24746;BME280;12845;52.042;6.838;2023-04-16T07:46:15;-18267.47;;;8.89;100.00
24746;BME280;12845;52.042;6.838;2023-04-16T07:48:44;-18268.28;;;8.92;100.00
24746;BME280;12845;52.042;6.838;2023-04-16T07:51:12;-18270.75;;;9.01;100.00
24746;BME280;12845;52.042;6.838;2023-04-16T07:53:38;-18271.16;;;9.03;100.00
24746;BME280;12845;52.042;6.838;2023-04-16T07:56:03;-18272.53;;;9.08;100.00
24746;BME280;12845;52.042;6.838;2023-04-16T07:58:29;-18273.38;;;9.11;100.00
24746;BME280;12845;52.042;6.838;2023-04-16T08:00:54;-18275.56;;;9.19;100.00
24746;BME280;12845;52.042;6.838;2023-04-16T08:03:20;-18275.03;;;9.17;100.00
24746;BME280;12845;52.042;6.838;2023-04-16T08:05:45;-18275.56;;;9.19;100.00
24746;BME280;12845;52.042;6.838;2023-04-16T08:08:10;-18278.88;;;9.32;100.00
24746;BME280;12845;52.042;6.838;2023-04-16T08:10:36;-18280.25;;;9.37;100.00
24746;BME280;12845;52.042;6.838;2023-04-16T08:13:01;-18283.13;;;9.47;100.00
24746;BME280;12845;52.042;6.838;2023-04-16T08:15:26;-18281.63;;;9.42;100.00
24746;BME280;12845;52.042;6.838;2023-04-16T08:17:52;-18281.63;;;9.42;100.00
24746;BME280;12845;52.042;6.838;2023-04-16T08:20:17;-18285.75;;;9.57;100.00
24746;BME280;12845;52.042;6.838;2023-04-16T08:22:44;-18287.94;;;9.65;100.00
24746;BME280;12845;52.042;6.838;2023-04-16T08:25:10;-18291.13;;;9.77;100.00
24746;BME280;12845;52.042;6.838;2023-04-16T08:27:35;-18287.41;;;9.63;100.00
24746;BME280;12845;52.042;6.838;2023-04-16T08:30:01;-18290.97;;;9.77;100.00
24746;BME280;12845;52.042;6.838;2023-04-16T08:32:26;-18294.28;;;9.89;100.00
24746;BME280;12845;52.042;6.838;2023-04-16T08:34:52;-18292.22;;;9.81;100.00
24746;BME280;12845;52.042;6.838;2023-04-16T08:37:17;-18297.31;;;10.00;100.00
24746;BME280;12845;52.042;6.838;2023-04-16T08:39:42;-18296.06;;;9.96;100.00
24746;BME280;12845;52.042;6.838;2023-04-16T08:42:17;-18294.13;;;9.88;100.00
24746;BME280;12845;52.042;6.838;2023-04-16T08:44:47;-18293.88;;;9.87;100.00
24746;BME280;12845;52.042;6.838;2023-04-16T08:47:15;-18296.06;;;9.96;100.00
24746;BME280;12845;52.042;6.838;2023-04-16T08:49:44;-18294.28;;;9.89;100.00
24746;BME280;12845;52.042;6.838;2023-04-16T08:52:14;-18300.06;;;10.10;100.00
24746;BME280;12845;52.042;6.838;2023-04-16T08:55:02;-18300.88;;;10.13;100.00
24746;BME280;12845;52.042;6.838;2023-04-16T08:57:43;-18301.97;;;10.17;100.00
24746;BME280;12845;52.042;6.838;2023-04-16T09:00:12;-18302.53;;;10.20;100.00
24746;BME280;12845;52.042;6.838;2023-04-16T09:02:38;-18308.16;;;10.41;100.00
24746;BME280;12845;52.042;6.838;2023-04-16T09:05:05;-18310.50;;;10.49;100.00
24746;BME280;12845;52.042;6.838;2023-04-16T09:07:31;-18313.53;;;10.60;100.00
24746;BME280;12845;52.042;6.838;2023-04-16T09:09:58;-18313.38;;;10.60;100.00
24746;BME280;12845;52.042;6.838;2023-04-16T09:12:24;-18314.63;;;10.65;100.00
24746;BME280;12845;52.042;6.838;2023-04-16T09:14:50;-18313.25;;;10.59;100.00
24746;BME280;12845;52.042;6.838;2023-04-16T09:17:16;-18311.88;;;10.54;100.00
24746;BME280;12845;52.042;6.838;2023-04-16T09:19:42;-18316.13;;;10.70;100.00
24746;BME280;12845;52.042;6.838;2023-04-16T09:22:08;-18318.47;;;10.79;100.00
24746;BME280;12845;52.042;6.838;2023-04-16T09:24:33;-18322.59;;;10.94;100.00
24746;BME280;12845;52.042;6.838;2023-04-16T09:26:59;-18327.53;;;11.13;100.00
24746;BME280;12845;52.042;6.838;2023-04-16T09:29:35;-18330.41;;;11.23;100.00
24746;BME280;12845;52.042;6.838;2023-04-16T09:32:05;-18333.44;;;11.35;100.00
24746;BME280;12845;52.042;6.838;2023-04-16T09:34:32;-18333.44;;;11.35;100.00
24746;BME280;12845;52.042;6.838;2023-04-16T09:37:16;-18337.41;;;11.49;100.00
24746;BME280;12845;52.042;6.838;2023-04-16T09:39:42;-18336.47;;;11.46;100.00
24746;BME280;12845;52.042;6.838;2023-04-16T09:42:09;-18338.25;;;11.52;100.00
24746;BME280;12845;52.042;6.838;2023-04-16T09:44:35;-18337.16;;;11.48;100.00
24746;BME280;12845;52.042;6.838;2023-04-16T09:47:06;-18343.59;;;11.72;100.00
24746;BME280;12845;52.042;6.838;2023-04-16T09:49:40;-18344.56;;;11.76;100.00
24746;BME280;12845;52.042;6.838;2023-04-16T09:52:17;-18349.91;;;11.96;100.00
24746;BME280;12845;52.042;6.838;2023-04-16T09:57:26;-18350.88;;;12.00;100.00
24746;BME280;12845;52.042;6.838;2023-04-16T10:00:01;-18351.28;;;12.01;100.00
24746;BME280;12845;52.042;6.838;2023-04-16T10:02:27;-18348.94;;;11.92;100.00
24746;BME280;12845;52.042;6.838;2023-04-16T10:04:53;-18351.69;;;12.03;100.00
24746;BME280;12845;52.042;6.838;2023-04-16T10:07:26;-18355.13;;;12.15;100.00
24746;BME280;12845;52.042;6.838;2023-04-16T10:09:52;-18359.66;;;12.32;100.00
24746;BME280;12845;52.042;6.838;2023-04-16T10:12:19;-18356.91;;;12.22;100.00
24746;BME280;12845;52.042;6.838;2023-04-16T10:14:44;-18359.25;;;12.31;100.00
24746;BME280;12845;52.042;6.838;2023-04-16T10:17:10;-18359.53;;;12.32;100.00
24746;BME280;12845;52.042;6.838;2023-04-16T10:19:36;-18363.22;;;12.46;100.00
24746;BME280;12845;52.042;6.838;2023-04-16T10:22:02;-18363.22;;;12.46;100.00
24746;BME280;12845;52.042;6.838;2023-04-16T10:24:32;-18366.78;;;12.59;100.00
24746;BME280;12845;52.042;6.838;2023-04-16T10:26:58;-18375.16;;;12.90;100.00
24746;BME280;12845;52.042;6.838;2023-04-16T10:29:28;-18378.16;;;13.01;100.00
24746;BME280;12845;52.042;6.838;2023-04-16T10:31:54;-18373.63;;;12.84;100.00
24746;BME280;12845;52.042;6.838;2023-04-16T10:34:21;-18372.28;;;12.79;100.00
24746;BME280;12845;52.042;6.838;2023-04-16T10:36:48;-18372.69;;;12.81;100.00
24746;BME280;12845;52.042;6.838;2023-04-16T10:39:18;-18378.72;;;13.03;100.00
24746;BME280;12845;52.042;6.838;2023-04-16T10:41:44;-18385.16;;;13.27;100.00
24746;BME280;12845;52.042;6.838;2023-04-16T10:44:10;-18385.44;;;13.28;100.00
24746;BME280;12845;52.042;6.838;2023-04-16T10:46:41;-18378.31;;;13.02;100.00
24746;BME280;12845;52.042;6.838;2023-04-16T10:51:39;-18384.06;;;13.23;100.00
24746;BME280;12845;52.042;6.838;2023-04-16T10:56:34;-18385.16;;;13.27;100.00
24746;BME280;12845;52.042;6.838;2023-04-16T10:59:03;-18385.16;;;13.27;100.00
24746;BME280;12845;52.042;6.838;2023-04-16T11:01:31;-18387.34;;;13.36;100.00
24746;BME280;12845;52.042;6.838;2023-04-16T11:12:40;-18389.56;;;13.44;100.00
24746;BME280;12845;52.042;6.838;2023-04-16T11:15:13;-18393.09;;;13.57;100.00
24746;BME280;12845;52.042;6.838;2023-04-16T11:17:46;-18388.59;;;13.40;100.00
24746;BME280;12845;52.042;6.838;2023-04-16T11:20:23;-18391.06;;;13.49;100.00
24746;BME280;12845;52.042;6.838;2023-04-16T11:22:50;-18386.94;;;13.34;100.00
24746;BME280;12845;52.042;6.838;2023-04-16T11:25:29;-18382.69;;;13.18;100.00
24746;BME280;12845;52.042;6.838;2023-04-16T11:27:56;-18380.91;;;13.12;100.00
24746;BME280;12845;52.042;6.838;2023-04-16T11:30:31;-18381.19;;;13.13;100.00
24746;BME280;12845;52.042;6.838;2023-04-16T11:32:58;-18384.34;;;13.24;100.00
24746;BME280;12845;52.042;6.838;2023-04-16T11:35:23;-18381.88;;;13.15;100.00
24746;BME280;12845;52.042;6.838;2023-04-16T11:37:49;-18383.66;;;13.22;100.00
24746;BME280;12845;52.042;6.838;2023-04-16T11:40:14;-18382.97;;;13.19;100.00
24746;BME280;12845;52.042;6.838;2023-04-16T11:42:40;-18383.38;;;13.21;100.00
24746;BME280;12845;52.042;6.838;2023-04-16T11:45:08;-18386.53;;;13.32;100.00
24746;BME280;12845;52.042;6.838;2023-04-16T11:47:47;-18385.84;;;13.30;100.00
24746;BME280;12845;52.042;6.838;2023-04-16T11:50:21;-18391.19;;;13.50;100.00
24746;BME280;12845;52.042;6.838;2023-04-16T11:52:47;-18395.56;;;13.66;100.00
24746;BME280;12845;52.042;6.838;2023-04-16T11:55:13;-18399.00;;;13.79;100.00
24746;BME280;12845;52.042;6.838;2023-04-16T11:57:39;-18405.16;;;14.02;100.00
24746;BME280;12845;52.042;6.838;2023-04-16T12:00:05;-18403.66;;;13.96;100.00
24746;BME280;12845;52.042;6.838;2023-04-16T12:02:53;-18406.25;;;14.06;100.00
24746;BME280;12845;52.042;6.838;2023-04-16T12:07:58;-18410.38;;;14.21;100.00
24746;BME280;12845;52.042;6.838;2023-04-16T12:10:24;-18406.66;;;14.08;100.00
24746;BME280;12845;52.042;6.838;2023-04-16T12:12:49;-18408.03;;;14.13;100.00
24746;BME280;12845;52.042;6.838;2023-04-16T12:15:21;-18412.28;;;14.29;100.00
24746;BME280;12845;52.042;6.838;2023-04-16T12:17:46;-18418.88;;;14.53;100.00
24746;BME280;12845;52.042;6.838;2023-04-16T12:20:13;-18422.56;;;14.67;100.00
24746;BME280;12845;52.042;6.838;2023-04-16T12:22:43;-18417.63;;;14.49;100.00
24746;BME280;12845;52.042;6.838;2023-04-16T12:25:16;-18422.41;;;14.66;100.00
24746;BME280;12845;52.042;6.838;2023-04-16T12:27:53;-18422.16;;;14.65;100.00
24746;BME280;12845;52.042;6.838;2023-04-16T12:30:23;-18421.59;;;14.63;100.00
24746;BME280;12845;52.042;6.838;2023-04-16T12:32:52;-18418.59;;;14.52;100.00
24746;BME280;12845;52.042;6.838;2023-04-16T12:35:32;-18412.28;;;14.29;100.00
24746;BME280;12845;52.042;6.838;2023-04-16T12:37:58;-18415.56;;;14.41;100.00
24746;BME280;12845;52.042;6.838;2023-04-16T12:40:24;-18415.84;;;14.42;100.00
24746;BME280;12845;52.042;6.838;2023-04-16T12:42:49;-18415.44;;;14.40;100.00
24746;BME280;12845;52.042;6.838;2023-04-16T12:45:15;-18415.03;;;14.39;100.00
24746;BME280;12845;52.042;6.838;2023-04-16T12:47:41;-18420.38;;;14.59;100.00
24746;BME280;12845;52.042;6.838;2023-04-16T12:50:06;-18421.88;;;14.64;100.00
24746;BME280;12845;52.042;6.838;2023-04-16T12:52:33;-18420.22;;;14.58;100.00
24746;BME280;12845;52.042;6.838;2023-04-16T12:54:58;-18415.28;;;14.40;100.00
24746;BME280;12845;52.042;6.838;2023-04-16T12:57:24;-18415.28;;;14.40;100.00
24746;BME280;12845;52.042;6.838;2023-04-16T12:59:56;-18419.97;;;14.57;100.00
24746;BME280;12845;52.042;6.838;2023-04-16T13:02:22;-18419.97;;;14.57;100.00
24746;BME280;12845;52.042;6.838;2023-04-16T13:04:48;-18420.09;;;14.58;100.00